createdAt,value
2023-04-15T00:01:01.189Z,6.10
2023-04-15T00:03:30.172Z,6.10
2023-04-15T00:05:58.354Z,6.10
2023-04-15T00:08:25.743Z,6.10
2023-04-15T00:10:52.785Z,6.00
2023-04-15T00:13:20.458Z,6.00
2023-04-15T00:15:48.274Z,6.00
2023-04-15T00:18:14.866Z,6.00
2023-04-15T00:20:42.510Z,6.00
2023-04-15T00:23:09.311Z,6.10
2023-04-15T00:25:36.626Z,6.10
2023-04-15T00:28:03.812Z,6.10
2023-04-15T00:30:31.724Z,6.10
2023-04-15T00:32:58.417Z,6.10
2023-04-15T00:35:25.864Z,6.20
2023-04-15T00:37:52.533Z,6.30
2023-04-15T00:40:21.889Z,6.40
2023-04-15T00:42:49.739Z,6.40
2023-04-15T00:45:17.227Z,6.30
2023-04-15T00:47:44.399Z,6.30
2023-04-15T00:50:12.905Z,6.20
2023-04-15T00:52:40.515Z,6.10
2023-04-15T00:55:08.893Z,6.00
2023-04-15T00:57:36.112Z,5.90
2023-04-15T01:00:04.923Z,5.90
2023-04-15T01:02:32.696Z,5.70
2023-04-15T01:05:02.674Z,5.60
2023-04-15T01:07:29.325Z,5.60
2023-04-15T01:09:57.058Z,5.50
2023-04-15T01:12:26.107Z,5.40
2023-04-15T01:14:55.521Z,5.30
2023-04-15T01:17:22.886Z,5.30
2023-04-15T01:19:50.352Z,5.20
2023-04-15T01:22:17.563Z,5.10
2023-04-15T01:24:56.057Z,5.10
2023-04-15T01:27:23.165Z,5.10
2023-04-15T01:29:50.111Z,5.20
2023-04-15T01:32:17.377Z,5.30
2023-04-15T01:34:44.326Z,5.30
2023-04-15T01:37:12.080Z,5.30
2023-04-15T01:39:39.365Z,5.20
2023-04-15T01:42:07.129Z,5.20
2023-04-15T01:44:33.812Z,5.10
2023-04-15T01:47:01.165Z,5.10
2023-04-15T01:49:27.851Z,5.00
2023-04-15T01:51:55.264Z,5.00
2023-04-15T01:54:22.473Z,5.00
2023-04-15T01:56:51.500Z,4.90
2023-04-15T01:59:18.648Z,4.90
2023-04-15T02:01:46.813Z,4.90
2023-04-15T02:04:16.557Z,4.80
2023-04-15T02:06:44.474Z,4.70
2023-04-15T02:09:12.193Z,4.70
2023-04-15T02:11:39.686Z,4.60
2023-04-15T02:14:06.344Z,4.60
2023-04-15T02:16:34.275Z,4.50
2023-04-15T02:19:02.050Z,4.50
2023-04-15T02:21:30.912Z,4.60
2023-04-15T02:23:57.530Z,4.70
2023-04-15T02:26:25.867Z,4.70
2023-04-15T02:28:54.714Z,4.80
2023-04-15T02:31:22.007Z,4.80
2023-04-15T02:33:48.664Z,4.70
2023-04-15T02:36:15.898Z,4.80
2023-04-15T02:38:43.554Z,4.80
2023-04-15T02:41:11.592Z,4.90
2023-04-15T02:43:39.866Z,4.90
2023-04-15T02:46:08.719Z,4.90
2023-04-15T02:48:35.900Z,5.00
2023-04-15T02:51:14.957Z,5.10
2023-04-15T02:53:41.640Z,5.20
2023-04-15T02:56:09.173Z,5.20
2023-04-15T02:58:36.480Z,5.20
2023-04-15T03:01:03.917Z,5.20
2023-04-15T03:03:30.695Z,5.30
2023-04-15T03:05:58.276Z,5.20
2023-04-15T03:08:25.060Z,5.20
2023-04-15T03:10:53.786Z,5.10
2023-04-15T03:13:21.566Z,5.10
2023-04-15T03:15:48.751Z,5.00
2023-04-15T03:18:16.195Z,5.00
2023-04-15T03:20:43.024Z,5.00
2023-04-15T03:23:10.708Z,5.00
2023-04-15T03:25:37.570Z,5.00
2023-04-15T03:28:06.968Z,4.90
2023-04-15T03:30:33.656Z,4.90
2023-04-15T03:33:01.250Z,5.00
2023-04-15T03:35:28.306Z,4.90
2023-04-15T03:37:54.919Z,5.00
2023-04-15T03:40:22.614Z,5.00
2023-04-15T03:42:49.317Z,5.00
2023-04-15T03:45:16.741Z,5.00
2023-04-15T03:47:43.379Z,5.10
2023-04-15T03:50:11.193Z,5.10
2023-04-15T03:52:37.915Z,5.10
2023-04-15T03:55:05.526Z,5.20
2023-04-15T03:57:32.157Z,5.20
2023-04-15T03:59:59.084Z,5.20
2023-04-15T04:02:26.579Z,5.20
2023-04-15T04:04:53.693Z,5.20
2023-04-15T04:07:23.497Z,5.20
2023-04-15T04:09:50.119Z,5.10
2023-04-15T04:12:17.378Z,5.10
2023-04-15T04:14:44.234Z,5.10
2023-04-15T04:17:11.902Z,5.10
2023-04-15T04:19:38.633Z,5.10
2023-04-15T04:22:05.944Z,5.20
2023-04-15T04:24:32.676Z,5.10
2023-04-15T04:27:00.044Z,5.10
2023-04-15T04:29:26.908Z,5.10
2023-04-15T04:31:54.232Z,5.00
2023-04-15T04:34:21.052Z,5.00
2023-04-15T04:36:48.313Z,4.90
2023-04-15T04:39:14.955Z,4.90
2023-04-15T04:41:42.290Z,4.90
2023-04-15T04:44:09.204Z,4.90
2023-04-15T04:46:36.113Z,4.90
2023-04-15T04:49:02.964Z,4.90
2023-04-15T04:51:31.200Z,4.90
2023-04-15T04:53:57.927Z,4.90
2023-04-15T04:56:25.198Z,5.00
2023-04-15T04:58:51.847Z,5.10
2023-04-15T05:01:19.258Z,5.10
2023-04-15T05:03:46.002Z,5.20
2023-04-15T05:06:13.282Z,5.20
2023-04-15T05:08:41.191Z,5.30
2023-04-15T05:11:09.211Z,5.30
2023-04-15T05:13:38.557Z,5.40
2023-04-15T05:16:06.576Z,5.50
2023-04-15T05:18:33.417Z,5.60
2023-04-15T05:21:00.833Z,5.60
2023-04-15T05:23:27.614Z,5.70
2023-04-15T05:25:54.907Z,5.70
2023-04-15T05:28:21.754Z,5.80
2023-04-15T05:30:49.015Z,5.90
2023-04-15T05:33:15.732Z,6.20
2023-04-15T05:35:42.985Z,6.70
2023-04-15T05:38:09.649Z,7.30
2023-04-15T05:40:37.530Z,7.80
2023-04-15T05:43:04.128Z,8.10
2023-04-15T05:45:31.384Z,8.70
2023-04-15T05:47:58.040Z,9.20
2023-04-15T05:50:25.340Z,9.60
2023-04-15T05:52:52.026Z,9.80
2023-04-15T05:55:19.413Z,10.10
2023-04-15T05:57:46.337Z,10.40
2023-04-15T06:00:14.654Z,10.50
2023-04-15T06:02:41.770Z,10.40
2023-04-15T06:05:10.149Z,10.40
2023-04-15T06:07:37.568Z,10.40
2023-04-15T06:10:06.162Z,10.50
2023-04-15T06:12:33.250Z,10.20
2023-04-15T06:15:00.610Z,10.00
2023-04-15T06:17:27.560Z,9.80
2023-04-15T06:19:57.879Z,9.90
2023-04-15T06:22:24.819Z,10.10
2023-04-15T06:24:51.897Z,10.40
2023-04-15T06:27:19.462Z,10.60
2023-04-15T06:29:46.194Z,10.80
2023-04-15T06:32:14.559Z,10.70
2023-04-15T06:34:41.589Z,10.60
2023-04-15T06:37:09.931Z,10.50
2023-04-15T06:39:37.093Z,10.50
2023-04-15T06:42:04.736Z,10.80
2023-04-15T06:44:33.242Z,11.10
2023-04-15T06:47:01.412Z,11.30
2023-04-15T06:49:27.998Z,11.10
2023-04-15T06:51:55.282Z,11.10
2023-04-15T06:54:22.389Z,11.00
2023-04-15T06:56:50.204Z,10.60
2023-04-15T06:59:16.804Z,10.20
2023-04-15T07:01:44.165Z,10.00
2023-04-15T07:04:11.234Z,9.90
2023-04-15T07:06:39.021Z,10.00
2023-04-15T07:09:05.908Z,10.20
2023-04-15T07:11:33.413Z,10.40
2023-04-15T07:14:00.218Z,11.00
2023-04-15T07:16:29.384Z,11.70
2023-04-15T07:18:57.063Z,12.70
2023-04-15T07:21:25.416Z,13.10
2023-04-15T07:23:52.324Z,13.30
2023-04-15T07:26:19.560Z,13.60
2023-04-15T07:28:47.237Z,13.70
2023-04-15T07:31:15.118Z,13.40
2023-04-15T07:33:41.947Z,12.70
2023-04-15T07:36:09.646Z,12.40
2023-04-15T07:38:36.282Z,12.20
2023-04-15T07:41:03.711Z,11.70
2023-04-15T07:43:30.364Z,11.10
2023-04-15T07:45:57.771Z,10.90
2023-04-15T07:48:24.452Z,11.10
2023-04-15T07:50:51.834Z,11.30
2023-04-15T07:53:18.470Z,11.50
2023-04-15T07:55:45.510Z,11.60
2023-04-15T07:58:12.218Z,11.70
2023-04-15T08:00:39.647Z,11.90
2023-04-15T08:03:06.641Z,11.90
2023-04-15T08:05:34.307Z,11.90
2023-04-15T08:08:01.309Z,11.90
2023-04-15T08:10:29.867Z,11.80
2023-04-15T08:12:57.459Z,12.00
2023-04-15T08:15:24.969Z,12.20
2023-04-15T08:17:51.666Z,12.40
2023-04-15T08:20:19.234Z,12.30
2023-04-15T08:22:47.717Z,12.20
2023-04-15T08:25:15.041Z,12.50
2023-04-15T08:27:41.803Z,13.00
2023-04-15T08:30:09.757Z,13.20
2023-04-15T08:32:36.466Z,13.20
2023-04-15T08:35:03.927Z,12.90
2023-04-15T08:37:30.526Z,12.50
2023-04-15T08:39:57.478Z,12.20
2023-04-15T08:42:31.268Z,12.30
2023-04-15T08:45:02.109Z,12.10
2023-04-15T08:47:31.702Z,12.00
2023-04-15T08:50:00.053Z,11.90
2023-04-15T08:52:27.193Z,12.00
2023-04-15T08:55:01.186Z,12.00
2023-04-15T08:57:31.994Z,12.00
2023-04-15T08:59:59.301Z,11.90
2023-04-15T09:02:27.473Z,12.00
2023-04-15T09:04:55.130Z,12.10
2023-04-15T09:07:21.828Z,12.10
2023-04-15T09:09:49.033Z,12.20
2023-04-15T09:12:17.099Z,12.20
2023-04-15T09:14:47.703Z,12.40
2023-04-15T09:17:19.563Z,12.40
2023-04-15T09:19:46.917Z,12.50
2023-04-15T09:22:14.287Z,12.50
2023-04-15T09:24:43.549Z,12.60
2023-04-15T09:27:11.004Z,12.90
2023-04-15T09:29:38.198Z,12.90
2023-04-15T09:32:12.491Z,12.90
2023-04-15T09:34:40.032Z,13.00
2023-04-15T09:37:07.787Z,13.00
2023-04-15T09:39:50.112Z,13.10
2023-04-15T09:42:26.801Z,13.20
2023-04-15T09:44:54.577Z,13.20
2023-04-15T09:47:32.322Z,13.20
2023-04-15T09:50:01.103Z,13.20
2023-04-15T09:52:28.505Z,13.20
2023-04-15T09:54:59.643Z,13.20
2023-04-15T09:57:34.554Z,13.20
2023-04-15T10:00:01.981Z,13.20
2023-04-15T10:02:30.062Z,13.20
2023-04-15T10:04:57.990Z,13.20
2023-04-15T10:07:25.569Z,12.90
2023-04-15T10:09:54.010Z,12.90
2023-04-15T10:12:21.924Z,13.20
2023-04-15T10:14:56.970Z,13.50
2023-04-15T10:17:25.851Z,13.50
2023-04-15T10:19:55.734Z,13.50
2023-04-15T10:22:28.121Z,13.50
2023-04-15T10:24:57.001Z,13.60
2023-04-15T10:27:24.435Z,13.60
2023-04-15T10:29:51.982Z,13.50
2023-04-15T10:32:21.231Z,13.60
2023-04-15T10:34:50.543Z,13.50
2023-04-15T10:37:35.833Z,13.50
2023-04-15T10:40:31.625Z,13.40
2023-04-15T10:43:02.960Z,13.30
2023-04-15T10:45:35.700Z,13.30
2023-04-15T10:48:04.510Z,13.40
2023-04-15T10:50:32.564Z,13.40
2023-04-15T10:53:02.553Z,13.80
2023-04-15T10:55:33.522Z,14.20
2023-04-15T10:58:02.353Z,14.20
2023-04-15T11:00:30.936Z,14.10
2023-04-15T11:03:07.595Z,14.20
2023-04-15T11:05:52.492Z,14.40
2023-04-15T11:08:20.303Z,14.50
2023-04-15T11:10:46.853Z,14.40
2023-04-15T11:13:22.066Z,14.50
2023-04-15T11:15:49.488Z,14.40
2023-04-15T11:18:21.098Z,14.30
2023-04-15T11:20:54.371Z,14.10
2023-04-15T11:23:46.954Z,14.00
2023-04-15T11:26:13.950Z,13.90
2023-04-15T11:28:43.443Z,14.00
2023-04-15T11:31:12.898Z,13.80
2023-04-15T11:34:00.158Z,14.00
2023-04-15T11:36:28.488Z,14.20
2023-04-15T11:38:57.573Z,14.30
2023-04-15T11:41:24.420Z,14.30
2023-04-15T11:43:52.800Z,14.20
2023-04-15T11:46:19.559Z,14.10
2023-04-15T11:48:47.696Z,14.10
2023-04-15T11:51:14.688Z,13.90
2023-04-15T11:53:48.103Z,13.70
2023-04-15T11:56:25.950Z,13.50
2023-04-15T11:58:58.708Z,13.70
2023-04-15T12:01:39.695Z,13.50
2023-04-15T12:04:15.873Z,13.60
2023-04-15T12:06:42.919Z,13.50
2023-04-15T12:09:14.645Z,13.50
2023-04-15T12:11:51.762Z,13.50
2023-04-15T12:14:24.961Z,13.30
2023-04-15T12:16:54.077Z,13.20
2023-04-15T12:19:46.463Z,13.10
2023-04-15T12:22:15.408Z,13.10
2023-04-15T12:24:44.499Z,13.10
2023-04-15T12:27:12.502Z,13.00
2023-04-15T12:29:42.170Z,13.00
2023-04-15T12:32:11.040Z,13.00
2023-04-15T12:34:49.782Z,12.80
2023-04-15T12:37:16.806Z,13.10
2023-04-15T12:39:49.126Z,13.40
2023-04-15T12:42:17.261Z,13.90
2023-04-15T12:44:44.717Z,13.80
2023-04-15T12:47:12.159Z,13.70
2023-04-15T12:49:40.166Z,13.40
2023-04-15T12:52:07.058Z,13.10
2023-04-15T12:54:34.878Z,13.10
2023-04-15T12:57:05.936Z,13.00
2023-04-15T12:59:34.577Z,13.00
2023-04-15T13:02:02.649Z,13.10
2023-04-15T13:04:33.408Z,13.10
2023-04-15T13:07:01.360Z,13.10
2023-04-15T13:09:28.685Z,13.20
2023-04-15T13:11:56.323Z,13.10
2023-04-15T13:14:23.552Z,12.90
2023-04-15T13:16:50.407Z,12.70
2023-04-15T13:19:17.607Z,12.60
2023-04-15T13:21:44.250Z,12.50
2023-04-15T13:24:11.791Z,12.50
2023-04-15T13:26:38.461Z,12.80
2023-04-15T13:29:05.338Z,12.90
2023-04-15T13:31:32.033Z,13.00
2023-04-15T13:33:59.036Z,13.10
2023-04-15T13:36:26.449Z,13.10
2023-04-15T13:38:53.487Z,13.10
2023-04-15T13:41:21.049Z,13.00
2023-04-15T13:43:47.969Z,12.90
2023-04-15T13:46:14.926Z,12.80
2023-04-15T13:48:42.042Z,12.80
2023-04-15T13:51:08.745Z,12.80
2023-04-15T13:53:38.458Z,12.90
2023-04-15T13:56:09.925Z,12.90
2023-04-15T13:58:38.480Z,12.80
2023-04-15T14:01:06.951Z,12.70
2023-04-15T14:03:36.535Z,12.60
2023-04-15T14:06:04.314Z,12.60
2023-04-15T14:08:31.892Z,12.50
2023-04-15T14:10:58.574Z,12.40
2023-04-15T14:13:25.478Z,12.40
2023-04-15T14:15:52.845Z,12.30
2023-04-15T14:18:19.495Z,12.40
2023-04-15T14:20:47.039Z,12.20
2023-04-15T14:23:14.053Z,12.20
2023-04-15T14:25:40.796Z,12.10
2023-04-15T14:28:07.724Z,12.20
2023-04-15T14:30:35.276Z,12.30
2023-04-15T14:33:02.594Z,12.50
2023-04-15T14:35:29.528Z,12.60
2023-04-15T14:37:56.858Z,12.70
2023-04-15T14:40:24.234Z,12.70
2023-04-15T14:42:50.902Z,12.50
2023-04-15T14:45:18.577Z,12.50
2023-04-15T14:47:45.308Z,12.40
2023-04-15T14:50:12.655Z,12.30
2023-04-15T14:52:39.470Z,12.20
2023-04-15T14:55:08.402Z,12.10
2023-04-15T14:57:35.089Z,12.10
2023-04-15T15:00:03.723Z,12.10
2023-04-15T15:02:39.324Z,12.10
2023-04-15T15:05:08.592Z,12.20
2023-04-15T15:07:37.462Z,12.20
2023-04-15T15:10:05.083Z,12.20
2023-04-15T15:12:32.938Z,12.20
2023-04-15T15:15:01.582Z,12.30
2023-04-15T15:17:30.048Z,12.40
2023-04-15T15:19:57.986Z,12.20
2023-04-15T15:22:25.979Z,12.20
2023-04-15T15:24:53.764Z,12.20
2023-04-15T15:27:20.688Z,12.20
2023-04-15T15:29:49.176Z,12.20
2023-04-15T15:32:15.915Z,12.10
2023-04-15T15:34:43.047Z,12.10
2023-04-15T15:37:09.670Z,12.10
2023-04-15T15:39:36.629Z,12.20
2023-04-15T15:42:03.383Z,12.30
2023-04-15T15:44:31.508Z,12.40
2023-04-15T15:46:59.458Z,12.40
2023-04-15T15:49:28.299Z,12.50
2023-04-15T15:51:56.115Z,12.50
2023-04-15T15:54:24.642Z,12.50
2023-04-15T15:56:51.251Z,12.60
2023-04-15T15:59:18.491Z,12.60
2023-04-15T16:01:45.373Z,12.50
2023-04-15T16:04:12.932Z,12.20
2023-04-15T16:06:40.610Z,12.00
2023-04-15T16:09:07.542Z,11.90
2023-04-15T16:11:34.186Z,11.80
2023-04-15T16:14:01.169Z,11.80
2023-04-15T16:16:29.786Z,11.70
2023-04-15T16:19:00.190Z,11.60
2023-04-15T16:21:27.251Z,11.50
2023-04-15T16:23:54.257Z,11.40
2023-04-15T16:26:21.621Z,11.30
2023-04-15T16:28:48.976Z,11.30
2023-04-15T16:31:15.574Z,11.40
2023-04-15T16:33:42.879Z,11.30
2023-04-15T16:36:09.497Z,11.30
2023-04-15T16:38:36.450Z,11.20
2023-04-15T16:41:03.107Z,11.20
2023-04-15T16:43:30.134Z,11.10
2023-04-15T16:45:56.734Z,11.00
2023-04-15T16:48:24.087Z,10.90
2023-04-15T16:50:50.690Z,10.90
2023-04-15T16:53:18.072Z,10.70
2023-04-15T16:55:44.690Z,10.70
2023-04-15T16:58:12.119Z,10.70
2023-04-15T17:00:38.774Z,10.60
2023-04-15T17:03:06.327Z,10.60
2023-04-15T17:05:33.615Z,10.50
2023-04-15T17:08:00.821Z,10.40
2023-04-15T17:10:27.887Z,10.40
2023-04-15T17:12:56.917Z,10.40
2023-04-15T17:15:23.862Z,10.30
2023-04-15T17:17:51.199Z,10.30
2023-04-15T17:20:17.964Z,10.30
2023-04-15T17:22:45.968Z,10.20
2023-04-15T17:25:13.972Z,10.10
2023-04-15T17:27:41.844Z,10.10
2023-04-15T17:30:08.974Z,10.10
2023-04-15T17:32:36.815Z,10.00
2023-04-15T17:35:06.167Z,10.10
2023-04-15T17:37:36.524Z,10.00
2023-04-15T17:40:03.675Z,10.00
2023-04-15T17:42:31.773Z,9.90
2023-04-15T17:44:58.351Z,9.90
2023-04-15T17:47:25.817Z,9.80
2023-04-15T17:49:52.497Z,9.80
2023-04-15T17:52:19.794Z,9.80
2023-04-15T17:54:46.715Z,9.70
2023-04-15T17:57:14.094Z,9.70
2023-04-15T17:59:44.894Z,9.60
2023-04-15T18:02:12.203Z,9.60
2023-04-15T18:04:39.759Z,9.50
2023-04-15T18:07:07.418Z,9.50
2023-04-15T18:09:34.043Z,9.50
2023-04-15T18:12:02.606Z,9.40
2023-04-15T18:14:34.752Z,9.40
2023-04-15T18:17:03.190Z,9.30
2023-04-15T18:19:31.882Z,9.20
2023-04-15T18:22:00.691Z,9.20
2023-04-15T18:24:27.761Z,9.10
2023-04-15T18:26:55.081Z,9.10
2023-04-15T18:29:21.793Z,9.00
2023-04-15T18:31:49.160Z,9.00
2023-04-15T18:34:16.064Z,8.90
2023-04-15T18:36:43.147Z,8.90
2023-04-15T18:39:10.492Z,8.90
2023-04-15T18:41:37.536Z,8.90
2023-04-15T18:44:04.128Z,8.80
2023-04-15T18:46:31.101Z,8.80
2023-04-15T18:48:57.784Z,8.70
2023-04-15T18:51:25.148Z,8.70
2023-04-15T18:53:51.840Z,8.70
2023-04-15T18:56:19.132Z,8.70
2023-04-15T18:59:08.864Z,8.70
2023-04-15T19:01:33.161Z,8.60
2023-04-15T19:03:59.933Z,8.60
2023-04-15T19:06:27.053Z,8.60
2023-04-15T19:08:54.075Z,8.60
2023-04-15T19:11:21.931Z,8.60
2023-04-15T19:13:48.923Z,8.60
2023-04-15T19:16:16.048Z,8.60
2023-04-15T19:18:43.067Z,8.60
2023-04-15T19:21:14.563Z,8.60
2023-04-15T19:23:42.875Z,8.50
2023-04-15T19:26:11.400Z,8.50
2023-04-15T19:28:38.058Z,8.50
2023-04-15T19:31:05.670Z,8.60
2023-04-15T19:33:32.412Z,8.60
2023-04-15T19:36:06.048Z,8.50
2023-04-15T19:38:35.740Z,8.50
2023-04-15T19:41:02.708Z,8.50
2023-04-15T19:43:29.669Z,8.50
2023-04-15T19:45:56.718Z,8.40
2023-04-15T19:48:25.515Z,8.40
2023-04-15T19:50:52.514Z,8.40
2023-04-15T19:53:19.130Z,8.30
2023-04-15T19:55:47.557Z,8.30
2023-04-15T19:58:14.448Z,8.30
2023-04-15T20:00:41.478Z,8.30
2023-04-15T20:03:08.247Z,8.20
2023-04-15T20:05:35.666Z,8.20
2023-04-15T20:08:03.121Z,8.20
2023-04-15T20:10:31.552Z,8.20
2023-04-15T20:12:58.229Z,8.20
2023-04-15T20:15:25.560Z,8.20
2023-04-15T20:17:52.302Z,8.20
2023-04-15T20:20:19.830Z,8.20
2023-04-15T20:22:46.730Z,8.20
2023-04-15T20:25:13.821Z,8.20
2023-04-15T20:27:40.576Z,8.20
2023-04-15T20:30:08.388Z,8.20
2023-04-15T20:32:35.708Z,8.20
2023-04-15T20:35:04.185Z,8.20
2023-04-15T20:37:33.118Z,8.20
2023-04-15T20:40:01.435Z,8.10
2023-04-15T20:42:31.845Z,8.10
2023-04-15T20:44:58.862Z,8.10
2023-04-15T20:47:25.838Z,8.10
2023-04-15T20:49:56.677Z,8.10
2023-04-15T20:52:23.574Z,8.00
2023-04-15T20:54:51.461Z,8.00
2023-04-15T20:57:18.156Z,8.00
2023-04-15T20:59:45.203Z,8.00
2023-04-15T21:02:12.029Z,8.00
2023-04-15T21:04:39.359Z,8.00
2023-04-15T21:07:06.098Z,7.90
2023-04-15T21:09:33.113Z,7.90
2023-04-15T21:12:01.071Z,7.90
2023-04-15T21:14:29.181Z,7.90
2023-04-15T21:16:59.549Z,7.90
2023-04-15T21:19:26.374Z,8.00
2023-04-15T21:21:53.721Z,8.00
2023-04-15T21:24:20.470Z,8.00
2023-04-15T21:26:47.779Z,7.90
2023-04-15T21:29:14.673Z,8.00
2023-04-15T21:31:42.251Z,8.00
2023-04-15T21:34:09.495Z,7.90
2023-04-15T21:36:38.076Z,8.00
2023-04-15T21:39:05.663Z,8.00
2023-04-15T21:41:33.145Z,7.90
2023-04-15T21:43:59.753Z,8.00
2023-04-15T21:46:32.741Z,8.00
2023-04-15T21:49:00.058Z,8.00
2023-04-15T21:51:27.537Z,8.00
2023-04-15T21:53:54.943Z,8.00
2023-04-15T21:56:23.922Z,8.00
2023-04-15T21:58:51.158Z,8.00
2023-04-15T22:01:18.502Z,8.00
2023-04-15T22:03:45.427Z,8.00
2023-04-15T22:06:13.911Z,8.00
2023-04-15T22:08:54.925Z,8.00
2023-04-15T22:11:26.995Z,8.00
2023-04-15T22:13:54.711Z,8.00
2023-04-15T22:16:22.343Z,7.90
2023-04-15T22:18:49.108Z,7.90
2023-04-15T22:21:16.653Z,8.00
2023-04-15T22:23:47.310Z,8.00
2023-04-15T22:26:14.703Z,8.00
2023-04-15T22:28:41.827Z,8.00
2023-04-15T22:31:09.349Z,7.90
2023-04-15T22:33:36.233Z,8.00
2023-04-15T22:36:03.700Z,8.00
2023-04-15T22:38:31.029Z,8.00
2023-04-15T22:40:58.119Z,8.00
2023-04-15T22:43:25.788Z,8.00
2023-04-15T22:45:55.188Z,7.90
2023-04-15T22:48:22.578Z,8.00
2023-04-15T22:50:50.044Z,7.90
2023-04-15T22:53:17.673Z,8.00
2023-04-15T22:55:46.939Z,7.90
2023-04-15T22:58:14.620Z,7.90
2023-04-15T23:00:41.950Z,7.90
2023-04-15T23:03:08.823Z,7.90
2023-04-15T23:05:37.298Z,7.90
2023-04-15T23:08:04.261Z,7.90
2023-04-15T23:10:31.730Z,7.90
2023-04-15T23:12:58.352Z,7.90
2023-04-15T23:15:25.959Z,7.90
2023-04-15T23:17:52.608Z,7.90
2023-04-15T23:20:19.915Z,7.90
2023-04-15T23:22:46.631Z,7.90
2023-04-15T23:25:13.888Z,8.00
2023-04-15T23:27:40.575Z,7.90
2023-04-15T23:30:08.409Z,7.90
2023-04-15T23:32:35.018Z,7.90
2023-04-15T23:35:02.308Z,7.90
2023-04-15T23:37:31.288Z,7.90
2023-04-15T23:39:58.645Z,7.90
2023-04-15T23:42:25.820Z,7.90
2023-04-15T23:44:53.178Z,7.90
2023-04-15T23:47:19.802Z,7.90
2023-04-15T23:49:47.177Z,7.90
2023-04-15T23:52:13.809Z,7.90
2023-04-15T23:54:41.015Z,7.90
2023-04-15T23:57:07.631Z,7.90
2023-04-15T23:59:34.866Z,7.80
